createdAt,value
2018-06-15T00:01:05.910Z,57.12
2018-06-15T00:03:34.682Z,56.82
2018-06-15T00:06:03.479Z,57.04
2018-06-15T00:08:32.272Z,57.14
2018-06-15T00:11:01.050Z,57.40
2018-06-15T00:13:29.824Z,57.04
2018-06-15T00:15:58.597Z,57.77
2018-06-15T00:18:27.371Z,57.50
2018-06-15T00:20:56.134Z,57.78
2018-06-15T00:23:24.897Z,57.58
2018-06-15T00:25:53.691Z,58.03
2018-06-15T00:28:22.438Z,58.28
2018-06-15T00:30:51.211Z,57.92
2018-06-15T00:33:19.967Z,58.13
2018-06-15T00:35:48.722Z,58.51
2018-06-15T00:38:17.460Z,58.07
2018-06-15T00:40:46.215Z,58.31
2018-06-15T00:43:14.990Z,58.17
2018-06-15T00:45:43.766Z,58.66
2018-06-15T00:48:12.562Z,58.76
2018-06-15T00:50:41.347Z,58.58
2018-06-15T00:53:10.094Z,58.27
2018-06-15T00:55:38.877Z,58.80
2018-06-15T00:58:07.679Z,58.57
2018-06-15T01:00:36.459Z,58.48
2018-06-15T01:03:05.252Z,58.55
2018-06-15T01:05:33.987Z,59.17
2018-06-15T01:08:02.788Z,58.76
2018-06-15T01:10:31.563Z,59.05
2018-06-15T01:13:00.362Z,59.06
2018-06-15T01:15:29.148Z,58.57
2018-06-15T01:17:57.948Z,59.03
2018-06-15T01:20:26.758Z,58.80
2018-06-15T01:22:55.599Z,58.79
2018-06-15T01:25:24.337Z,58.73
2018-06-15T01:27:53.103Z,59.67
2018-06-15T01:30:21.856Z,59.58
2018-06-15T01:32:50.636Z,59.20
2018-06-15T01:35:19.390Z,59.77
2018-06-15T01:37:48.210Z,59.68
2018-06-15T01:40:16.997Z,59.55
2018-06-15T01:42:45.756Z,59.58
2018-06-15T01:45:14.690Z,59.40
2018-06-15T01:47:43.425Z,59.57
2018-06-15T01:50:12.286Z,60.63
2018-06-15T01:52:41.314Z,60.06
2018-06-15T01:55:10.138Z,60.40
2018-06-15T01:57:38.938Z,59.82
2018-06-15T02:00:07.923Z,60.31
2018-06-15T02:02:36.685Z,60.68
2018-06-15T02:05:05.465Z,60.87
2018-06-15T02:07:34.538Z,60.38
2018-06-15T02:10:03.342Z,60.74
2018-06-15T02:12:32.098Z,60.07
2018-06-15T02:15:01.162Z,60.21
2018-06-15T02:17:29.983Z,60.57
2018-06-15T02:19:58.702Z,60.26
2018-06-15T02:22:27.474Z,60.81
2018-06-15T02:24:56.219Z,60.80
2018-06-15T02:27:25.017Z,60.39
2018-06-15T02:29:53.798Z,60.59
2018-06-15T02:32:22.631Z,60.44
2018-06-15T02:34:51.492Z,60.81
2018-06-15T02:37:20.676Z,60.73
2018-06-15T02:39:49.430Z,60.67
2018-06-15T02:42:18.173Z,60.80
2018-06-15T02:44:46.946Z,60.47
2018-06-15T02:47:15.698Z,60.62
2018-06-15T02:49:44.454Z,60.41
2018-06-15T02:52:13.286Z,60.36
2018-06-15T02:54:42.120Z,60.53
2018-06-15T02:57:10.931Z,60.43
2018-06-15T02:59:39.723Z,60.56
2018-06-15T03:02:08.466Z,60.84
2018-06-15T03:04:37.259Z,60.73
2018-06-15T03:07:06.032Z,60.47
2018-06-15T03:09:34.771Z,61.27
2018-06-15T03:12:03.559Z,60.68
2018-06-15T03:14:32.303Z,60.28
2018-06-15T03:17:01.053Z,60.66
2018-06-15T03:19:29.857Z,60.71
2018-06-15T03:21:58.794Z,60.47
2018-06-15T03:24:27.532Z,60.47
2018-06-15T03:26:56.308Z,60.18
2018-06-15T03:29:25.081Z,60.09
2018-06-15T03:31:53.837Z,59.82
2018-06-15T03:34:22.616Z,59.70
2018-06-15T03:36:51.366Z,59.44
2018-06-15T03:39:20.111Z,59.22
2018-06-15T03:41:48.866Z,59.51
2018-06-15T03:44:17.637Z,59.53
2018-06-15T03:46:46.412Z,59.24
2018-06-15T03:49:15.274Z,58.76
2018-06-15T03:51:44.036Z,58.48
2018-06-15T03:54:12.783Z,58.29
2018-06-15T03:56:41.516Z,58.47
2018-06-15T03:59:10.266Z,58.16
2018-06-15T04:01:39.018Z,58.05
2018-06-15T04:04:07.806Z,57.51
2018-06-15T04:06:36.593Z,56.45
2018-06-15T04:09:08.011Z,56.65
2018-06-15T04:11:37.093Z,55.54
2018-06-15T04:14:05.879Z,55.55
2018-06-15T04:16:35.159Z,55.00
2018-06-15T04:19:03.933Z,54.26
2018-06-15T04:21:32.716Z,53.69
2018-06-15T04:24:01.482Z,53.01
2018-06-15T04:26:30.281Z,51.62
2018-06-15T04:28:59.029Z,51.64
2018-06-15T04:31:27.791Z,51.30
2018-06-15T04:33:56.542Z,50.76
2018-06-15T04:36:25.307Z,51.33
2018-06-15T04:38:54.050Z,51.66
2018-06-15T04:41:22.795Z,51.88
2018-06-15T04:43:51.605Z,51.88
2018-06-15T04:46:20.605Z,51.87
2018-06-15T04:48:49.369Z,51.89
2018-06-15T04:51:18.146Z,51.53
2018-06-15T04:53:47.068Z,51.48
2018-06-15T04:56:15.838Z,51.12
2018-06-15T04:58:44.643Z,50.73
2018-06-15T05:01:14.030Z,51.16
2018-06-15T05:03:43.148Z,50.62
2018-06-15T05:06:12.753Z,50.05
2018-06-15T05:08:41.834Z,50.23
2018-06-15T05:11:10.973Z,49.74
2018-06-15T05:13:39.774Z,49.31
2018-06-15T05:16:08.761Z,49.32
2018-06-15T05:18:37.553Z,48.82
2018-06-15T05:21:06.338Z,48.75
2018-06-15T05:23:35.150Z,49.00
2018-06-15T05:26:04.002Z,48.85
2018-06-15T05:28:33.166Z,48.84
2018-06-15T05:31:02.491Z,48.81
2018-06-15T05:33:31.253Z,48.36
2018-06-15T05:36:00.506Z,48.29
2018-06-15T05:38:29.415Z,48.25
2018-06-15T05:40:58.549Z,47.99
2018-06-15T05:43:27.349Z,48.16
2018-06-15T05:45:56.127Z,48.01
2018-06-15T05:48:24.937Z,48.01
2018-06-15T05:50:54.034Z,47.74
2018-06-15T05:53:22.988Z,47.85
2018-06-15T05:55:51.818Z,47.02
2018-06-15T05:58:20.593Z,47.27
2018-06-15T06:00:49.337Z,46.50
2018-06-15T06:03:19.814Z,46.10
2018-06-15T06:05:49.344Z,45.75
2018-06-15T06:08:19.922Z,45.93
2018-06-15T06:10:49.255Z,44.84
2018-06-15T06:13:18.052Z,44.75
2018-06-15T06:15:47.006Z,43.44
2018-06-15T06:18:15.876Z,44.69
2018-06-15T06:20:44.678Z,44.11
2018-06-15T06:23:13.633Z,43.21
2018-06-15T06:25:42.544Z,43.74
2018-06-15T06:28:11.324Z,43.51
2018-06-15T06:30:40.131Z,43.60
2018-06-15T06:33:08.914Z,42.68
2018-06-15T06:35:38.103Z,43.30
2018-06-15T06:38:06.930Z,43.97
2018-06-15T06:40:35.689Z,43.28
2018-06-15T06:43:04.488Z,43.05
2018-06-15T06:45:33.342Z,42.69
2018-06-15T06:48:02.280Z,41.40
2018-06-15T06:50:31.191Z,41.57
2018-06-15T06:53:00.055Z,42.27
2018-06-15T06:55:28.853Z,41.61
2018-06-15T06:57:57.685Z,42.68
2018-06-15T07:00:26.470Z,42.79
2018-06-15T07:02:55.281Z,42.78
2018-06-15T07:05:24.097Z,42.60
2018-06-15T07:07:52.873Z,42.08
2018-06-15T07:10:21.624Z,42.22
2018-06-15T07:12:50.386Z,42.61
2018-06-15T07:15:19.161Z,41.34
2018-06-15T07:17:47.981Z,42.14
2018-06-15T07:20:16.740Z,42.03
2018-06-15T07:22:45.549Z,41.53
2018-06-15T07:25:14.339Z,42.07
2018-06-15T07:27:43.313Z,41.67
2018-06-15T07:30:12.158Z,41.81
2018-06-15T07:32:40.897Z,41.88
2018-06-15T07:35:09.681Z,42.00
2018-06-15T07:37:38.519Z,41.69
2018-06-15T07:40:07.299Z,41.85
2018-06-15T07:42:36.066Z,41.32
2018-06-15T07:45:05.218Z,41.12
2018-06-15T07:47:33.998Z,41.51
2018-06-15T07:50:03.025Z,41.52
2018-06-15T07:52:31.993Z,41.31
2018-06-15T07:55:00.721Z,40.92
2018-06-15T07:57:29.519Z,41.10
2018-06-15T07:59:58.328Z,40.99
2018-06-15T08:02:27.139Z,40.77
2018-06-15T08:04:55.913Z,40.55
2018-06-15T08:07:24.753Z,40.93
2018-06-15T08:09:53.559Z,38.88
2018-06-15T08:12:22.323Z,39.79
2018-06-15T08:14:51.130Z,38.61
2018-06-15T08:17:20.164Z,39.03
2018-06-15T08:19:48.901Z,39.24
2018-06-15T08:22:17.718Z,39.67
2018-06-15T08:24:46.485Z,39.88
2018-06-15T08:27:15.236Z,40.29
2018-06-15T08:29:44.222Z,39.92
2018-06-15T08:32:12.985Z,40.22
2018-06-15T08:34:41.757Z,40.08
2018-06-15T08:37:10.542Z,40.00
2018-06-15T08:39:39.301Z,40.21
2018-06-15T08:42:08.091Z,39.38
2018-06-15T08:44:36.887Z,40.29
2018-06-15T08:47:05.769Z,38.82
2018-06-15T08:49:34.578Z,39.37
2018-06-15T08:52:03.370Z,38.89
2018-06-15T08:54:32.197Z,38.49
2018-06-15T08:57:00.966Z,38.34
2018-06-15T08:59:29.759Z,38.03
2018-06-15T09:01:58.511Z,37.45
2018-06-15T09:04:27.277Z,38.35
2018-06-15T09:06:56.036Z,36.77
2018-06-15T09:09:24.854Z,37.81
2018-06-15T09:11:53.582Z,37.08
2018-06-15T09:14:22.357Z,36.78
2018-06-15T09:16:51.110Z,37.42
2018-06-15T09:19:19.857Z,37.93
2018-06-15T09:21:48.639Z,37.69
2018-06-15T09:24:17.390Z,38.17
2018-06-15T09:26:46.142Z,37.33
2018-06-15T09:29:15.203Z,37.72
2018-06-15T09:31:43.982Z,37.64
2018-06-15T09:34:12.726Z,37.44
2018-06-15T09:36:41.513Z,38.51
2018-06-15T09:39:11.538Z,37.65
2018-06-15T09:41:40.840Z,37.72
2018-06-15T09:44:09.618Z,36.62
2018-06-15T09:46:38.403Z,37.47
2018-06-15T09:49:07.155Z,36.26
2018-06-15T09:51:35.934Z,37.00
2018-06-15T09:54:04.730Z,36.20
2018-06-15T09:56:33.490Z,36.02
2018-06-15T09:59:02.283Z,36.97
2018-06-15T10:01:31.042Z,37.35
2018-06-15T10:03:59.797Z,36.68
2018-06-15T10:06:34.885Z,36.46
2018-06-15T10:09:03.965Z,36.82
2018-06-15T10:11:32.706Z,37.19
2018-06-15T10:14:01.651Z,35.85
2018-06-15T10:16:30.415Z,36.97
2018-06-15T10:18:59.218Z,37.13
2018-06-15T10:21:27.986Z,37.28
2018-06-15T10:23:56.744Z,36.30
2018-06-15T10:26:25.502Z,36.03
2018-06-15T10:28:54.312Z,36.68
2018-06-15T10:31:23.106Z,36.05
2018-06-15T10:33:51.925Z,35.41
2018-06-15T10:36:20.839Z,35.67
2018-06-15T10:38:49.625Z,35.67
2018-06-15T10:41:18.395Z,35.50
2018-06-15T10:43:47.155Z,34.76
2018-06-15T10:46:16.010Z,35.00
2018-06-15T10:48:44.750Z,35.52
2018-06-15T10:51:13.506Z,35.01
2018-06-15T10:53:42.272Z,34.43
2018-06-15T10:56:11.051Z,34.56
2018-06-15T10:58:39.917Z,34.25
2018-06-15T11:01:08.809Z,35.15
2018-06-15T11:03:37.570Z,33.96
2018-06-15T11:06:06.338Z,34.89
2018-06-15T11:08:35.104Z,35.78
2018-06-15T11:11:03.866Z,33.91
2018-06-15T11:13:32.617Z,34.17
2018-06-15T11:16:01.530Z,34.85
2018-06-15T11:18:30.294Z,35.19
2018-06-15T11:20:59.260Z,34.44
2018-06-15T11:23:28.235Z,35.56
2018-06-15T11:25:57.007Z,34.56
2018-06-15T11:28:25.955Z,33.65
2018-06-15T11:30:54.809Z,33.57
2018-06-15T11:33:23.814Z,33.24
2018-06-15T11:35:52.594Z,33.94
2018-06-15T11:38:21.498Z,33.80
2018-06-15T11:40:50.257Z,33.27
2018-06-15T11:43:19.065Z,33.48
2018-06-15T11:45:47.862Z,33.68
2018-06-15T11:48:16.623Z,33.36
2018-06-15T11:50:45.407Z,33.27
2018-06-15T11:53:14.237Z,32.74
2018-06-15T11:55:42.973Z,31.46
2018-06-15T11:58:11.722Z,31.77
2018-06-15T12:00:40.489Z,32.65
2018-06-15T12:03:09.265Z,32.99
2018-06-15T12:05:38.293Z,33.17
2018-06-15T12:08:07.372Z,31.32
2018-06-15T12:10:36.154Z,32.65
2018-06-15T12:13:04.997Z,30.83
2018-06-15T12:15:33.778Z,32.03
2018-06-15T12:18:02.829Z,31.70
2018-06-15T12:20:31.582Z,31.78
2018-06-15T12:23:00.326Z,32.52
2018-06-15T12:25:29.265Z,32.39
2018-06-15T12:27:58.033Z,31.58
2018-06-15T12:30:26.789Z,30.55
2018-06-15T12:32:55.521Z,31.57
2018-06-15T12:35:24.275Z,31.30
2018-06-15T12:37:53.147Z,31.75
2018-06-15T12:40:21.954Z,31.63
2018-06-15T12:42:50.721Z,31.80
2018-06-15T12:45:19.566Z,31.69
2018-06-15T12:47:48.305Z,31.21
2018-06-15T12:50:17.046Z,31.54
2018-06-15T12:52:45.791Z,32.21
2018-06-15T12:55:14.557Z,31.77
2018-06-15T12:57:43.440Z,31.76
2018-06-15T13:00:12.269Z,30.36
2018-06-15T13:02:41.037Z,31.00
2018-06-15T13:05:09.820Z,30.66
2018-06-15T13:07:38.587Z,30.64
2018-06-15T13:10:07.358Z,30.07
2018-06-15T13:12:36.125Z,30.70
2018-06-15T13:15:04.958Z,29.32
2018-06-15T13:17:33.717Z,30.16
2018-06-15T13:20:02.646Z,29.94
2018-06-15T13:22:31.465Z,29.95
2018-06-15T13:25:00.213Z,30.16
2018-06-15T13:27:28.962Z,30.65
2018-06-15T13:30:04.075Z,29.08
2018-06-15T13:32:32.848Z,29.76
2018-06-15T13:35:01.621Z,30.66
2018-06-15T13:37:30.495Z,29.95
2018-06-15T13:39:59.544Z,30.00
2018-06-15T13:42:28.615Z,30.01
2018-06-15T13:44:57.399Z,28.59
2018-06-15T13:47:26.238Z,30.53
2018-06-15T13:49:55.048Z,28.60
2018-06-15T13:52:23.905Z,30.14
2018-06-15T13:55:13.955Z,29.27
2018-06-15T13:57:42.766Z,30.55
2018-06-15T14:00:11.545Z,28.65
2018-06-15T14:02:40.314Z,30.70
2018-06-15T14:05:09.171Z,29.16
2018-06-15T14:07:37.954Z,30.71
2018-06-15T14:10:06.962Z,30.53
2018-06-15T14:12:35.776Z,30.28
2018-06-15T14:15:04.611Z,29.04
2018-06-15T14:17:33.449Z,30.59
2018-06-15T14:20:02.298Z,30.34
2018-06-15T14:22:31.075Z,31.22
2018-06-15T14:24:59.851Z,29.79
2018-06-15T14:27:28.665Z,30.61
2018-06-15T14:29:57.517Z,28.79
2018-06-15T14:32:26.405Z,30.29
2018-06-15T14:34:55.186Z,30.05
2018-06-15T14:37:23.972Z,29.81
2018-06-15T14:39:52.749Z,30.04
2018-06-15T14:42:21.525Z,29.52
2018-06-15T14:44:50.326Z,29.68
2018-06-15T14:47:19.109Z,30.11
2018-06-15T14:49:47.894Z,29.72
2018-06-15T14:52:16.685Z,29.41
2018-06-15T14:54:45.741Z,30.00
2018-06-15T14:57:14.545Z,29.53
2018-06-15T14:59:43.337Z,29.68
2018-06-15T15:02:12.363Z,29.60
2018-06-15T15:04:41.130Z,30.42
2018-06-15T15:07:09.979Z,30.48
2018-06-15T15:09:38.807Z,29.38
2018-06-15T15:12:07.615Z,29.37
2018-06-15T15:14:36.405Z,30.14
2018-06-15T15:17:05.312Z,27.81
2018-06-15T15:19:34.065Z,29.73
2018-06-15T15:22:02.829Z,29.59
2018-06-15T15:24:31.653Z,29.67
2018-06-15T15:27:00.426Z,29.46
2018-06-15T15:29:29.210Z,29.72
2018-06-15T15:31:57.970Z,29.32
2018-06-15T15:34:26.794Z,29.73
2018-06-15T15:36:55.577Z,29.84
2018-06-15T15:39:24.478Z,29.94
2018-06-15T15:41:53.289Z,30.52
2018-06-15T15:44:22.154Z,30.80
2018-06-15T15:46:50.927Z,30.10
2018-06-15T15:49:19.702Z,28.95
2018-06-15T15:51:48.522Z,29.90
2018-06-15T15:54:17.293Z,30.35
2018-06-15T15:56:46.083Z,30.78
2018-06-15T15:59:14.866Z,30.36
2018-06-15T16:01:43.666Z,30.65
2018-06-15T16:04:12.478Z,29.98
2018-06-15T16:06:41.233Z,30.28
2018-06-15T16:09:10.639Z,30.16
2018-06-15T16:11:39.441Z,29.59
2018-06-15T16:14:08.253Z,29.76
2018-06-15T16:16:37.152Z,29.51
2018-06-15T16:19:05.981Z,28.55
2018-06-15T16:21:34.779Z,28.76
2018-06-15T16:24:03.563Z,29.42
2018-06-15T16:26:32.332Z,29.03
2018-06-15T16:29:01.981Z,29.80
2018-06-15T16:31:31.422Z,29.51
2018-06-15T16:34:00.225Z,29.88
2018-06-15T16:36:33.578Z,29.20
2018-06-15T16:39:02.322Z,29.33
2018-06-15T16:41:31.139Z,28.04
2018-06-15T16:43:59.948Z,28.87
2018-06-15T16:46:28.835Z,29.11
2018-06-15T16:48:57.589Z,28.65
2018-06-15T16:51:26.376Z,29.32
2018-06-15T16:53:55.136Z,29.05
2018-06-15T16:56:23.943Z,28.80
2018-06-15T16:58:52.734Z,29.37
2018-06-15T17:01:21.511Z,29.23
2018-06-15T17:03:50.349Z,28.82
2018-06-15T17:06:19.170Z,29.14
2018-06-15T17:08:48.113Z,29.55
2018-06-15T17:11:16.881Z,29.43
2018-06-15T17:13:45.713Z,28.54
2018-06-15T17:16:14.505Z,29.05
2018-06-15T17:18:43.407Z,29.27
2018-06-15T17:21:12.265Z,28.30
2018-06-15T17:23:41.038Z,29.22
2018-06-15T17:26:09.817Z,29.28
2018-06-15T17:28:38.661Z,29.63
2018-06-15T17:31:07.474Z,29.49
2018-06-15T17:33:36.331Z,29.23
2018-06-15T17:36:05.423Z,28.30
2018-06-15T17:38:34.348Z,28.99
2018-06-15T17:41:03.196Z,29.17
2018-06-15T17:43:32.060Z,28.39
2018-06-15T17:46:00.814Z,27.61
2018-06-15T17:48:29.676Z,28.38
2018-06-15T17:50:58.690Z,29.58
2018-06-15T17:53:27.490Z,29.03
2018-06-15T17:55:56.293Z,28.70
2018-06-15T17:58:25.242Z,29.55
2018-06-15T18:00:54.021Z,29.41
2018-06-15T18:03:22.849Z,29.44
2018-06-15T18:05:51.630Z,29.41
2018-06-15T18:08:20.462Z,28.91
2018-06-15T18:10:49.260Z,28.99
2018-06-15T18:13:18.197Z,29.50
2018-06-15T18:15:47.028Z,29.00
2018-06-15T18:18:15.937Z,29.61
2018-06-15T18:20:44.738Z,28.45
2018-06-15T18:23:13.499Z,28.50
2018-06-15T18:25:42.309Z,28.46
2018-06-15T18:28:11.105Z,29.11
2018-06-15T18:30:39.915Z,28.79
2018-06-15T18:33:09.251Z,29.28
2018-06-15T18:35:38.087Z,29.43
2018-06-15T18:38:06.953Z,29.58
2018-06-15T18:40:36.309Z,29.71
2018-06-15T18:43:05.442Z,29.58
2018-06-15T18:45:34.460Z,28.34
2018-06-15T18:48:03.330Z,28.28
2018-06-15T18:50:32.225Z,29.44
2018-06-15T18:53:01.019Z,29.35
2018-06-15T18:55:29.840Z,28.70
2018-06-15T18:57:58.898Z,28.95
2018-06-15T19:00:28.200Z,28.83
2018-06-15T19:02:57.001Z,29.01
2018-06-15T19:05:25.915Z,28.88
2018-06-15T19:07:54.776Z,29.20
2018-06-15T19:10:23.616Z,28.99
2018-06-15T19:12:52.426Z,29.26
2018-06-15T19:15:21.216Z,28.72
2018-06-15T19:17:50.134Z,28.89
2018-06-15T19:20:19.750Z,29.39
2018-06-15T19:22:48.753Z,28.95
2018-06-15T19:25:17.765Z,28.77
2018-06-15T19:27:46.611Z,27.99
2018-06-15T19:30:15.522Z,28.36
2018-06-15T19:32:44.374Z,28.48
2018-06-15T19:35:13.217Z,27.54
2018-06-15T19:37:42.009Z,28.03
2018-06-15T19:40:10.782Z,27.95
2018-06-15T19:42:39.593Z,28.46
2018-06-15T19:45:08.500Z,27.99
2018-06-15T19:47:37.258Z,28.67
2018-06-15T19:50:06.063Z,28.77
2018-06-15T19:52:34.890Z,28.67
2018-06-15T19:55:03.682Z,28.26
2018-06-15T19:57:32.469Z,28.49
2018-06-15T20:00:01.249Z,28.56
2018-06-15T20:02:30.016Z,28.72
2018-06-15T20:04:58.814Z,28.73
2018-06-15T20:07:27.606Z,28.82
2018-06-15T20:09:56.503Z,28.50
2018-06-15T20:12:25.324Z,28.46
2018-06-15T20:14:54.111Z,28.01
2018-06-15T20:17:22.874Z,28.34
2018-06-15T20:19:51.683Z,28.41
2018-06-15T20:22:20.579Z,28.92
2018-06-15T20:24:49.358Z,28.73
2018-06-15T20:27:18.184Z,28.69
2018-06-15T20:29:46.955Z,28.53
2018-06-15T20:32:15.764Z,28.78
2018-06-15T20:34:44.553Z,28.86
2018-06-15T20:37:13.328Z,28.81
2018-06-15T20:39:42.226Z,29.03
2018-06-15T20:42:11.250Z,28.83
2018-06-15T20:44:40.004Z,29.04
2018-06-15T20:47:08.777Z,29.23
2018-06-15T20:49:37.577Z,29.02
2018-06-15T20:52:06.482Z,28.95
2018-06-15T20:54:35.275Z,29.36
2018-06-15T20:57:04.109Z,29.36
2018-06-15T20:59:32.901Z,29.31
2018-06-15T21:02:01.680Z,29.44
2018-06-15T21:04:30.533Z,29.15
2018-06-15T21:06:59.278Z,29.27
2018-06-15T21:09:28.037Z,29.44
2018-06-15T21:11:56.846Z,29.27
2018-06-15T21:14:25.814Z,29.42
2018-06-15T21:16:54.631Z,29.37
2018-06-15T21:19:23.409Z,29.41
2018-06-15T21:21:52.250Z,29.71
2018-06-15T21:24:21.041Z,29.82
2018-06-15T21:26:49.853Z,29.64
2018-06-15T21:29:18.621Z,29.70
2018-06-15T21:31:47.417Z,29.65
2018-06-15T21:34:16.181Z,29.62
2018-06-15T21:36:44.934Z,30.09
2018-06-15T21:39:13.710Z,29.52
2018-06-15T21:41:42.505Z,29.83
2018-06-15T21:44:11.281Z,29.81
2018-06-15T21:46:40.066Z,29.91
2018-06-15T21:49:08.917Z,30.08
2018-06-15T21:51:37.684Z,29.91
2018-06-15T21:54:06.534Z,29.90
2018-06-15T21:56:35.346Z,30.14
2018-06-15T21:59:04.118Z,30.00
2018-06-15T22:01:32.910Z,30.12
2018-06-15T22:04:02.013Z,30.39
2018-06-15T22:06:30.845Z,30.30
2018-06-15T22:08:59.641Z,30.05
2018-06-15T22:11:28.473Z,30.24
2018-06-15T22:13:57.234Z,30.15
2018-06-15T22:16:26.094Z,30.42
2018-06-15T22:18:55.014Z,30.62
2018-06-15T22:21:23.804Z,30.42
2018-06-15T22:23:52.573Z,30.53
2018-06-15T22:26:21.607Z,30.62
2018-06-15T22:28:50.386Z,30.83
2018-06-15T22:31:19.193Z,30.38
2018-06-15T22:33:48.003Z,31.18
2018-06-15T22:36:16.785Z,31.02
2018-06-15T22:38:45.582Z,31.15
2018-06-15T22:41:14.385Z,31.42
2018-06-15T22:43:43.162Z,31.63
2018-06-15T22:46:11.938Z,31.49
2018-06-15T22:48:40.724Z,31.72
2018-06-15T22:51:09.493Z,31.58
2018-06-15T22:53:38.346Z,31.83
2018-06-15T22:56:07.297Z,31.92
2018-06-15T22:58:36.182Z,32.20
2018-06-15T23:01:05.016Z,32.14
2018-06-15T23:03:33.811Z,32.00
2018-06-15T23:06:02.626Z,32.55
2018-06-15T23:08:31.417Z,32.57
2018-06-15T23:11:00.200Z,32.50
2018-06-15T23:13:28.968Z,32.80
2018-06-15T23:15:58.161Z,32.96
2018-06-15T23:18:26.980Z,33.30
2018-06-15T23:20:55.757Z,32.96
2018-06-15T23:23:24.612Z,33.11
2018-06-15T23:25:53.563Z,33.46
2018-06-15T23:28:22.318Z,33.58
2018-06-15T23:30:51.094Z,33.47
2018-06-15T23:33:19.886Z,33.58
2018-06-15T23:35:48.691Z,33.74
2018-06-15T23:38:17.483Z,33.88
2018-06-15T23:40:46.236Z,33.92
2018-06-15T23:43:14.982Z,33.83
2018-06-15T23:45:43.773Z,34.00
2018-06-15T23:48:12.521Z,33.95
2018-06-15T23:50:41.283Z,34.26
2018-06-15T23:53:10.067Z,34.26
2018-06-15T23:55:38.879Z,34.43
2018-06-15T23:58:07.630Z,34.31
